Time;durP1;ratioP1;P1;durP2;ratioP2;P2;SDS_P1;SDS_P2;PMS_P1;PMS_P2;Temp;Humidity;BMP_temperature;BMP_pressure;BME280_temperature;BME280_humidity;BME280_pressure;Samples;Min_cycle;Max_cycle;Signal;HPM_P1;HPM_P2
2023/10/01 00:01:58;;;;;;;;;;;14.20;99.90;;;;;;2620850;54;19951;-62
2023/10/01 00:04:31;;;;;;;;;;;14.10;99.90;;;;;;2616470;54;19947;-63
2023/10/01 00:07:02;;;;;;;;;;;14.10;99.90;;;;;;2617594;39;20329;-61
2023/10/01 00:09:32;;;;;;;;;;;14.10;99.90;;;;;;2616188;47;19973;-64
2023/10/01 00:12:02;;;;;;;;;;;14.10;99.90;;;;;;2616775;54;19951;-62
2023/10/01 00:14:32;;;;;;;;;;;14.10;99.90;;;;;;2616828;54;19954;-62
2023/10/01 00:17:04;;;;;;;;;;;14.00;99.90;;;;;;2616762;54;19946;-62
2023/10/01 00:19:37;;;;;;;;;;;14.00;99.90;;;;;;2615473;47;20056;-63
2023/10/01 00:22:06;;;;;;;;;;;13.90;99.90;;;;;;2617457;54;19938;-63
2023/10/01 00:24:36;;;;;;;;;;;13.90;99.90;;;;;;2617502;54;19946;-64
2023/10/01 00:27:08;;;;;;;;;;;13.90;99.90;;;;;;2618026;54;19946;-63
2023/10/01 00:29:38;;;;;;;;;;;13.90;99.90;;;;;;2619494;54;19954;-63
2023/10/01 00:32:10;;;;;;;;;;;13.90;99.90;;;;;;2622854;54;20008;-62
2023/10/01 00:34:40;;;;;;;;;;;13.90;99.90;;;;;;2622171;54;20040;-62
2023/10/01 00:37:10;;;;;;;;;;;13.90;99.90;;;;;;2617637;54;19963;-62
2023/10/01 00:39:40;;;;;;;;;;;13.90;99.90;;;;;;2616551;54;19982;-64
2023/10/01 00:42:09;;;;;;;;;;;13.80;99.90;;;;;;2617167;54;19963;-63
2023/10/01 00:44:39;;;;;;;;;;;13.80;99.90;;;;;;2616176;54;19953;-65
2023/10/01 00:47:12;;;;;;;;;;;13.80;99.90;;;;;;2617134;54;20064;-63
2023/10/01 00:49:46;;;;;;;;;;;13.80;99.90;;;;;;2616305;54;19946;-64
2023/10/01 00:52:18;;;;;;;;;;;13.80;99.90;;;;;;2616416;54;20441;-62
2023/10/01 00:54:48;;;;;;;;;;;13.80;99.90;;;;;;2616311;54;19950;-63
2023/10/01 00:57:18;;;;;;;;;;;13.80;99.90;;;;;;2616673;54;19946;-63
2023/10/01 00:59:48;;;;;;;;;;;13.80;99.90;;;;;;2615486;54;19947;-63
2023/10/01 01:02:22;;;;;;;;;;;13.80;99.90;;;;;;2616359;54;20048;-63
2023/10/01 01:05:19;;;;;;;;;;;13.80;99.90;;;;;;2616994;54;19946;-64
2023/10/01 01:07:50;;;;;;;;;;;13.80;99.90;;;;;;2617090;47;20438;-63
2023/10/01 01:10:25;;;;;;;;;;;13.80;99.90;;;;;;2616984;39;20531;-64
2023/10/01 01:12:56;;;;;;;;;;;13.70;99.90;;;;;;2616453;54;19995;-61
2023/10/01 01:15:27;;;;;;;;;;;13.60;99.90;;;;;;2616655;54;19981;-62
2023/10/01 01:18:00;;;;;;;;;;;13.60;99.90;;;;;;2616869;54;19950;-63
2023/10/01 01:20:36;;;;;;;;;;;13.60;99.90;;;;;;2616803;39;20379;-64
2023/10/01 01:23:09;;;;;;;;;;;13.50;99.90;;;;;;2617055;54;19954;-64
2023/10/01 01:25:39;;;;;;;;;;;13.60;99.90;;;;;;2616983;54;19938;-63
2023/10/01 01:28:12;;;;;;;;;;;13.50;99.90;;;;;;2616468;54;19991;-61
2023/10/01 01:30:46;;;;;;;;;;;13.50;99.90;;;;;;2615804;54;19947;-62
2023/10/01 01:33:20;;;;;;;;;;;13.50;99.90;;;;;;2617064;54;19991;-63
2023/10/01 01:35:53;;;;;;;;;;;13.50;99.90;;;;;;2616430;54;19977;-62
2023/10/01 01:38:26;;;;;;;;;;;13.50;99.90;;;;;;2616932;54;19946;-63
2023/10/01 01:40:55;;;;;;;;;;;13.50;99.90;;;;;;2616123;54;19938;-62
2023/10/01 01:43:30;;;;;;;;;;;13.50;99.90;;;;;;2616838;54;19971;-64
2023/10/01 01:46:03;;;;;;;;;;;13.50;99.90;;;;;;2616362;54;19939;-63
2023/10/01 01:48:37;;;;;;;;;;;13.50;99.90;;;;;;2616971;54;19953;-62
2023/10/01 01:51:08;;;;;;;;;;;13.50;99.90;;;;;;2615995;54;19992;-63
2023/10/01 01:53:41;;;;;;;;;;;13.50;99.90;;;;;;2617072;54;19946;-63
2023/10/01 01:56:12;;;;;;;;;;;13.40;99.90;;;;;;2616864;47;19939;-63
2023/10/01 01:58:43;;;;;;;;;;;13.40;99.90;;;;;;2617850;39;20347;-61
2023/10/01 02:01:29;;;;;;;;;;;13.40;99.90;;;;;;2617201;54;19997;-62
2023/10/01 02:04:00;;;;;;;;;;;13.40;99.90;;;;;;2617679;47;19939;-62
2023/10/01 02:06:31;;;;;;;;;;;13.40;99.90;;;;;;2617722;54;19942;-61
2023/10/01 02:09:12;;;;;;;;;;;13.40;99.90;;;;;;2622421;54;19947;-62
2023/10/01 02:11:43;;;;;;;;;;;13.40;99.90;;;;;;2617248;54;19979;-62
2023/10/01 02:14:29;;;;;;;;;;;13.40;99.90;;;;;;2617494;47;19946;-63
2023/10/01 02:17:13;;;;;;;;;;;13.30;99.90;;;;;;2617889;39;20350;-61
2023/10/01 02:19:46;;;;;;;;;;;13.30;99.90;;;;;;2617341;54;20449;-61
2023/10/01 02:22:17;;;;;;;;;;;13.20;99.90;;;;;;2617549;46;19938;-63
2023/10/01 02:25:00;;;;;;;;;;;13.20;99.90;;;;;;2617560;47;20504;-62
2023/10/01 02:27:31;;;;;;;;;;;13.20;99.90;;;;;;2617436;54;19951;-62
2023/10/01 02:30:16;;;;;;;;;;;13.20;99.90;;;;;;2617117;54;19947;-63
2023/10/01 02:37:58;;;;;;;;;;;13.10;99.90;;;;;;2617443;47;20462;-76
2023/10/01 02:40:36;;;;;;;;;;;13.10;99.90;;;;;;2618145;47;19974;-76
2023/10/01 02:43:12;;;;;;;;;;;13.10;99.90;;;;;;2618029;54;20467;-76
2023/10/01 02:45:41;;;;;;;;;;;13.10;99.90;;;;;;2618041;47;19938;-76
2023/10/01 02:48:19;;;;;;;;;;;13.20;99.90;;;;;;2617956;54;19950;-76
2023/10/01 02:50:51;;;;;;;;;;;13.20;99.90;;;;;;2617897;47;19994;-76
2023/10/01 02:53:22;;;;;;;;;;;13.20;99.90;;;;;;2617443;54;19947;-76
2023/10/01 02:55:52;;;;;;;;;;;13.20;99.90;;;;;;2617402;47;19946;-76
2023/10/01 02:58:27;;;;;;;;;;;13.20;99.90;;;;;;2617159;47;19947;-76
2023/10/01 03:01:04;;;;;;;;;;;13.10;99.90;;;;;;2615297;47;20088;-76
2023/10/01 03:03:38;;;;;;;;;;;13.10;99.90;;;;;;2616812;47;20038;-76
2023/10/01 03:06:11;;;;;;;;;;;11.90;99.90;;;;;;2617156;47;20476;-76
2023/10/01 03:11:40;;;;;;;;;;;13.00;99.90;;;;;;2616775;47;20042;-75
2023/10/01 03:14:19;;;;;;;;;;;12.90;99.90;;;;;;2618253;47;19966;-76
2023/10/01 03:16:53;;;;;;;;;;;12.90;99.90;;;;;;2623888;39;20382;-76
2023/10/01 03:19:28;;;;;;;;;;;12.90;99.90;;;;;;2621499;47;19953;-76
2023/10/01 03:24:45;;;;;;;;;;;13.00;99.90;;;;;;2618018;47;20038;-77
2023/10/01 03:27:25;;;;;;;;;;;13.00;99.90;;;;;;2617991;47;19954;-77
2023/10/01 03:30:00;;;;;;;;;;;13.00;99.90;;;;;;2618372;39;20331;-76
2023/10/01 03:32:29;;;;;;;;;;;13.00;99.90;;;;;;2617730;54;20060;-75
2023/10/01 03:35:06;;;;;;;;;;;13.00;99.90;;;;;;2617764;47;20530;-76
2023/10/01 08:40:41;;;;;;;;;;;12.90;99.90;;;;;;2618031;54;21572;-81
2023/10/01 08:43:11;;;;;;;;;;;15.40;99.90;;;;;;2622596;54;19951;-65
2023/10/01 08:45:47;;;;;;;;;;;15.50;99.90;;;;;;2623369;54;20772;-64
2023/10/01 08:48:18;;;;;;;;;;;15.60;99.90;;;;;;2623534;54;19954;-65
2023/10/01 08:50:48;;;;;;;;;;;15.70;99.90;;;;;;2622576;54;19946;-63
2023/10/01 08:53:18;;;;;;;;;;;15.80;99.90;;;;;;2619208;39;20443;-63
2023/10/01 08:58:48;;;;;;;;;;;16.00;99.90;;;;;;2617866;54;19939;-65
2023/10/01 09:01:20;;;;;;;;;;;16.10;99.90;;;;;;2616683;54;19953;-65
2023/10/01 09:03:51;;;;;;;;;;;16.20;99.90;;;;;;2617889;54;19946;-65
2023/10/01 09:06:28;;;;;;;;;;;16.20;99.90;;;;;;2616400;47;20464;-64
2023/10/01 09:09:19;;;;;;;;;;;16.30;99.90;;;;;;2616221;54;19946;-64
2023/10/01 09:11:58;;;;;;;;;;;16.40;99.90;;;;;;2616997;48;19946;-65
2023/10/01 09:14:39;;;;;;;;;;;16.60;99.90;;;;;;2617193;54;20418;-66
2023/10/01 09:17:24;;;;;;;;;;;16.70;99.90;;;;;;2618196;54;20062;-65
2023/10/01 09:20:06;;;;;;;;;;;16.90;99.90;;;;;;2616920;47;19946;-67
2023/10/01 09:22:43;;;;;;;;;;;16.90;99.90;;;;;;2615975;54;19951;-66
2023/10/01 09:25:19;;;;;;;;;;;17.10;99.90;;;;;;2616680;54;19939;-65
2023/10/01 09:28:04;;;;;;;;;;;17.10;99.90;;;;;;2617506;54;19951;-65
2023/10/01 09:33:25;;;;;;;;;;;17.30;99.90;;;;;;2606329;54;19946;-65
2023/10/01 09:35:59;;;;;;;;;;;17.40;99.90;;;;;;2615350;54;20450;-65
2023/10/01 09:38:32;;;;;;;;;;;17.50;99.90;;;;;;2616636;47;20449;-65
2023/10/01 09:41:03;;;;;;;;;;;17.60;99.90;;;;;;2616913;54;20437;-67
2023/10/01 09:43:35;;;;;;;;;;;17.70;99.90;;;;;;2616562;54;19958;-63
2023/10/01 09:46:06;;;;;;;;;;;17.80;99.90;;;;;;2618435;54;19954;-64
2023/10/01 09:48:37;;;;;;;;;;;17.90;99.90;;;;;;2617733;54;19960;-65
2023/10/01 09:51:13;;;;;;;;;;;17.90;99.90;;;;;;2616736;54;19938;-64
2023/10/01 09:53:45;;;;;;;;;;;18.00;99.90;;;;;;2616900;39;20398;-64
2023/10/01 09:56:25;;;;;;;;;;;18.10;99.90;;;;;;2617224;54;19945;-63
2023/10/01 09:59:03;;;;;;;;;;;18.20;99.90;;;;;;2617763;46;19999;-64
2023/10/01 10:01:34;;;;;;;;;;;18.30;99.90;;;;;;2617279;54;20868;-64
2023/10/01 10:04:05;;;;;;;;;;;18.50;99.90;;;;;;2617856;54;19964;-64
2023/10/01 10:06:38;;;;;;;;;;;18.60;99.90;;;;;;2617150;54;19938;-64
2023/10/01 10:09:11;;;;;;;;;;;18.70;99.90;;;;;;2615433;54;19953;-63
2023/10/01 10:11:43;;;;;;;;;;;18.80;99.90;;;;;;2616325;54;19957;-63
2023/10/01 10:14:28;;;;;;;;;;;18.90;99.90;;;;;;2616459;54;20460;-65
2023/10/01 10:17:07;;;;;;;;;;;19.00;99.90;;;;;;2617232;54;19951;-63
2023/10/01 10:19:57;;;;;;;;;;;19.10;99.90;;;;;;2617137;46;20041;-65
2023/10/01 10:22:32;;;;;;;;;;;19.30;99.90;;;;;;2617161;47;20030;-64
2023/10/01 10:25:28;;;;;;;;;;;19.40;99.90;;;;;;2617094;47;19953;-64
2023/10/01 10:28:05;;;;;;;;;;;19.30;99.90;;;;;;2616923;54;19966;-64
2023/10/01 10:30:40;;;;;;;;;;;19.50;99.90;;;;;;2617420;54;19999;-64
2023/10/01 10:33:29;;;;;;;;;;;19.60;99.90;;;;;;2616535;54;19946;-64
2023/10/01 10:36:15;;;;;;;;;;;19.70;99.90;;;;;;2617311;54;19964;-64
2023/10/01 10:38:51;;;;;;;;;;;19.90;99.90;;;;;;2617599;54;19959;-63
2023/10/01 10:41:19;;;;;;;;;;;20.00;99.90;;;;;;2617394;54;19938;-63
2023/10/01 10:44:07;;;;;;;;;;;20.10;99.90;;;;;;2617164;54;19946;-65
2023/10/01 10:46:49;;;;;;;;;;;20.20;99.90;;;;;;2617609;54;19951;-63
2023/10/01 10:49:23;;;;;;;;;;;20.30;99.90;;;;;;2617443;54;19946;-62
2023/10/01 10:51:52;;;;;;;;;;;20.50;99.90;;;;;;2616657;47;19953;-62
2023/10/01 10:54:31;;;;;;;;;;;20.50;99.90;;;;;;2619132;54;20029;-65
2023/10/01 10:57:04;;;;;;;;;;;20.60;99.90;;;;;;2622123;39;20679;-64
2023/10/01 10:59:36;;;;;;;;;;;20.70;99.90;;;;;;2621562;47;19939;-63
2023/10/01 11:02:07;;;;;;;;;;;20.70;99.90;;;;;;2619862;47;19953;-65
2023/10/01 11:04:42;;;;;;;;;;;20.90;99.90;;;;;;2618031;54;19946;-62
2023/10/01 11:07:13;;;;;;;;;;;21.00;99.90;;;;;;2617121;47;19995;-64
2023/10/01 11:09:43;;;;;;;;;;;21.10;99.90;;;;;;2617641;54;19965;-64
2023/10/01 11:12:22;;;;;;;;;;;21.10;99.90;;;;;;2617976;47;19954;-64
2023/10/01 11:15:19;;;;;;;;;;;21.20;99.90;;;;;;2620235;54;20430;-65
2023/10/01 11:17:47;;;;;;;;;;;21.40;99.90;;;;;;2619953;47;19954;-65
2023/10/01 11:20:25;;;;;;;;;;;21.50;99.90;;;;;;2617426;54;19954;-66
2023/10/01 11:22:56;;;;;;;;;;;21.70;99.90;;;;;;2618459;54;19952;-65
2023/10/01 11:25:26;;;;;;;;;;;21.80;99.90;;;;;;2618904;39;20356;-66
2023/10/01 11:28:04;;;;;;;;;;;22.00;99.90;;;;;;2618231;54;19953;-66
2023/10/01 11:30:42;;;;;;;;;;;22.10;99.90;;;;;;2617882;54;19939;-66
2023/10/01 11:33:29;;;;;;;;;;;22.30;99.90;;;;;;2617813;54;20456;-67
2023/10/01 11:36:06;;;;;;;;;;;22.40;99.90;;;;;;2617935;54;19947;-66
2023/10/01 11:38:40;;;;;;;;;;;22.50;99.90;;;;;;2618925;39;20367;-67
2023/10/01 11:41:08;;;;;;;;;;;22.60;99.90;;;;;;2618090;47;20521;-66
2023/10/01 11:43:39;;;;;;;;;;;22.70;99.90;;;;;;2619898;47;19946;-66
2023/10/01 11:46:18;;;;;;;;;;;22.70;99.90;;;;;;2621238;54;20017;-66
2023/10/01 11:48:59;;;;;;;;;;;22.90;99.90;;;;;;2622118;47;19987;-65
2023/10/01 11:51:42;;;;;;;;;;;22.90;99.90;;;;;;2620693;54;19950;-65
2023/10/01 11:54:12;;;;;;;;;;;23.00;99.90;;;;;;2619833;54;20494;-67
2023/10/01 11:56:43;;;;;;;;;;;23.10;99.90;;;;;;2619840;47;19947;-67
2023/10/01 11:59:17;;;;;;;;;;;23.10;99.90;;;;;;2621030;47;19988;-66
2023/10/01 12:01:49;;;;;;;;;;;23.20;99.90;;;;;;2617840;54;19961;-67
2023/10/01 12:04:21;;;;;;;;;;;23.40;99.90;;;;;;2618846;47;20079;-67
2023/10/01 12:06:56;;;;;;;;;;;23.50;99.90;;;;;;2622655;54;20525;-67
2023/10/01 12:09:39;;;;;;;;;;;23.70;99.90;;;;;;2618307;54;19946;-67
2023/10/01 12:12:10;;;;;;;;;;;23.80;99.90;;;;;;2617087;54;19946;-66
2023/10/01 12:17:26;;;;;;;;;;;24.10;99.90;;;;;;2616535;54;20037;-66
2023/10/01 12:19:57;;;;;;;;;;;24.30;99.90;;;;;;2616659;54;19971;-65
2023/10/01 12:22:30;;;;;;;;;;;24.40;99.90;;;;;;2617271;54;19946;-69
2023/10/01 12:25:01;;;;;;;;;;;24.50;99.90;;;;;;2617092;54;20030;-67
2023/10/01 12:27:41;;;;;;;;;;;24.60;99.90;;;;;;2617134;54;19939;-67
2023/10/01 12:30:27;;;;;;;;;;;24.70;99.90;;;;;;2616987;54;19939;-67
2023/10/01 12:33:00;;;;;;;;;;;24.80;99.90;;;;;;2616944;54;19954;-67
2023/10/01 12:35:30;;;;;;;;;;;24.90;99.90;;;;;;2617498;54;19963;-67
2023/10/01 12:38:23;;;;;;;;;;;25.00;99.90;;;;;;2617411;54;19945;-67
2023/10/01 12:40:54;;;;;;;;;;;25.10;99.90;;;;;;2618545;54;19974;-68
2023/10/01 12:43:41;;;;;;;;;;;25.20;99.90;;;;;;2617280;47;19939;-67
2023/10/01 12:46:09;;;;;;;;;;;25.30;99.90;;;;;;2619082;39;20357;-67
2023/10/01 12:48:57;;;;;;;;;;;25.40;99.90;;;;;;2618105;47;19950;-66
2023/10/01 12:51:33;;;;;;;;;;;25.40;99.90;;;;;;2617836;54;19939;-67
2023/10/01 12:54:18;;;;;;;;;;;25.50;99.90;;;;;;2618094;47;19976;-66
2023/10/01 12:57:02;;;;;;;;;;;25.60;99.90;;;;;;2616443;54;19954;-65
2023/10/01 12:59:38;;;;;;;;;;;25.80;99.90;;;;;;2615995;54;19958;-68
2023/10/01 13:02:22;;;;;;;;;;;26.00;99.90;;;;;;2617395;54;19950;-65
2023/10/01 13:04:51;;;;;;;;;;;26.10;99.90;;;;;;2615867;54;19947;-66
2023/10/01 13:07:35;;;;;;;;;;;26.20;99.90;;;;;;2615298;54;20088;-66
2023/10/01 13:10:06;;;;;;;;;;;26.30;99.90;;;;;;2616284;54;19954;-66
2023/10/01 13:12:39;;;;;;;;;;;26.50;99.90;;;;;;2616436;54;19950;-66
2023/10/01 13:15:29;;;;;;;;;;;26.50;99.90;;;;;;2617101;54;19950;-66
2023/10/01 13:18:00;;;;;;;;;;;26.70;99.90;;;;;;2614151;47;20453;-66
2023/10/01 13:20:31;;;;;;;;;;;26.70;99.90;;;;;;2611090;54;20069;-67
2023/10/01 13:23:06;;;;;;;;;;;26.70;99.90;;;;;;2610508;54;19981;-65
2023/10/01 13:25:39;;;;;;;;;;;26.80;99.90;;;;;;2610619;54;19946;-65
2023/10/01 13:28:16;;;;;;;;;;;26.80;99.90;;;;;;2611363;54;20060;-64
2023/10/01 13:33:53;;;;;;;;;;;26.90;99.90;;;;;;2611435;54;20446;-69
2023/10/01 13:36:35;;;;;;;;;;;26.90;99.90;;;;;;2612746;47;19973;-67
2023/10/01 13:39:14;;;;;;;;;;;26.70;99.90;;;;;;2612539;47;19954;-65
2023/10/01 14:08:52;;;;;;;;;;;25.00;99.90;;;;;;2611491;54;19947;-66
2023/10/01 14:11:26;;;;;;;;;;;24.90;99.90;;;;;;2612915;39;20338;-64
2023/10/01 14:14:00;;;;;;;;;;;24.80;99.90;;;;;;2611455;54;19946;-67
2023/10/01 14:16:29;;;;;;;;;;;24.80;99.90;;;;;;2612436;54;19971;-64
2023/10/01 14:19:13;;;;;;;;;;;24.70;99.90;;;;;;2611647;47;19983;-66
2023/10/01 14:21:43;;;;;;;;;;;24.60;99.90;;;;;;2611908;39;20483;-65
2023/10/01 14:24:24;;;;;;;;;;;24.60;99.90;;;;;;2612990;31;20417;-66
2023/10/01 14:26:55;;;;;;;;;;;24.60;99.90;;;;;;2611241;54;20441;-66
2023/10/01 14:29:33;;;;;;;;;;;26.40;99.90;;;;;;2612029;39;20357;-65
2023/10/01 14:32:10;;;;;;;;;;;29.40;99.90;;;;;;2611035;47;19947;-67
2023/10/01 14:34:40;;;;;;;;;;;31.90;99.90;;;;;;2611856;46;19969;-67
2023/10/01 14:37:16;;;;;;;;;;;34.10;99.90;;;;;;2611937;54;19946;-68
2023/10/01 14:39:47;;;;;;;;;;;35.60;99.90;;;;;;2611126;54;19950;-66
2023/10/01 14:42:18;;;;;;;;;;;36.10;99.90;;;;;;2611432;54;19954;-66
2023/10/01 14:44:51;;;;;;;;;;;37.20;99.90;;;;;;2611702;54;20026;-68
2023/10/01 14:47:20;;;;;;;;;;;38.40;99.90;;;;;;2611884;47;19939;-66
2023/10/01 14:49:51;;;;;;;;;;;39.60;99.90;;;;;;2610574;47;19946;-65
2023/10/01 14:52:23;;;;;;;;;;;40.60;99.90;;;;;;2611591;31;20460;-67
2023/10/01 14:55:02;;;;;;;;;;;41.60;98.20;;;;;;2611816;54;19950;-66
2023/10/01 14:57:37;;;;;;;;;;;42.10;96.60;;;;;;2611614;54;19958;-66
2023/10/01 15:00:16;;;;;;;;;;;42.80;93.10;;;;;;2611079;54;19946;-67
2023/10/01 15:02:45;;;;;;;;;;;43.50;91.30;;;;;;2611192;47;19939;-66
2023/10/01 15:05:17;;;;;;;;;;;43.30;90.20;;;;;;2612002;47;19953;-69
2023/10/01 15:07:47;;;;;;;;;;;42.60;87.50;;;;;;2611527;54;19953;-67
2023/10/01 15:10:18;;;;;;;;;;;42.10;89.20;;;;;;2611335;54;20454;-65
2023/10/01 15:12:48;;;;;;;;;;;41.80;89.40;;;;;;2611777;47;19956;-66
2023/10/01 15:15:41;;;;;;;;;;;41.40;87.30;;;;;;2610793;54;19946;-67
2023/10/01 15:18:20;;;;;;;;;;;40.90;87.50;;;;;;2610755;54;20038;-66
2023/10/01 15:20:50;;;;;;;;;;;40.10;88.20;;;;;;2611341;47;19953;-66
2023/10/01 15:23:20;;;;;;;;;;;39.20;88.90;;;;;;2611319;47;19954;-66
2023/10/01 15:25:55;;;;;;;;;;;38.80;90.40;;;;;;2610994;54;19954;-67
2023/10/01 15:28:25;;;;;;;;;;;38.80;90.40;;;;;;2611511;47;19991;-66
2023/10/01 15:31:01;;;;;;;;;;;38.60;90.70;;;;;;2611245;47;19939;-69
2023/10/01 15:33:31;;;;;;;;;;;38.00;91.40;;;;;;2611314;47;19951;-65
2023/10/01 15:36:05;;;;;;;;;;;37.60;91.50;;;;;;2610935;54;21144;-67
2023/10/01 15:38:35;;;;;;;;;;;37.40;92.30;;;;;;2615554;54;19947;-67
2023/10/01 15:41:09;;;;;;;;;;;36.90;92.70;;;;;;2617366;47;19946;-68
2023/10/01 15:43:50;;;;;;;;;;;35.90;92.70;;;;;;2617809;54;19946;-67
2023/10/01 15:46:25;;;;;;;;;;;34.70;93.70;;;;;;2617336;54;19939;-67
2023/10/01 15:48:55;;;;;;;;;;;33.50;95.00;;;;;;2617316;54;19980;-64
2023/10/01 15:51:28;;;;;;;;;;;32.50;95.80;;;;;;2615931;47;19947;-78
2023/10/01 15:53:58;;;;;;;;;;;31.60;96.90;;;;;;2621306;54;19946;-79
2023/10/01 15:56:39;;;;;;;;;;;30.80;97.50;;;;;;2621447;54;19951;-79
2023/10/01 15:59:10;;;;;;;;;;;30.00;98.90;;;;;;2622012;47;19954;-80
2023/10/01 16:01:59;;;;;;;;;;;29.40;99.90;;;;;;2623387;54;19994;-79
2023/10/01 16:04:29;;;;;;;;;;;28.70;99.90;;;;;;2622419;47;19939;-79
2023/10/01 16:07:03;;;;;;;;;;;28.10;99.90;;;;;;2621304;47;19947;-78
2023/10/01 16:09:38;;;;;;;;;;;27.60;99.90;;;;;;2623291;47;19953;-79
2023/10/01 16:12:10;;;;;;;;;;;27.20;99.90;;;;;;2620905;47;19946;-78
2023/10/01 16:14:43;;;;;;;;;;;26.90;99.90;;;;;;2616216;47;19954;-72
2023/10/01 16:17:31;;;;;;;;;;;26.50;99.90;;;;;;2616111;54;20063;-72
2023/10/01 16:20:02;;;;;;;;;;;26.20;99.90;;;;;;2616207;54;20058;-71
2023/10/01 16:22:32;;;;;;;;;;;26.00;99.90;;;;;;2616521;54;19953;-74
2023/10/01 16:25:10;;;;;;;;;;;25.70;99.90;;;;;;2616986;54;20485;-72
2023/10/01 16:27:40;;;;;;;;;;;25.50;99.90;;;;;;2617910;47;19946;-72
2023/10/01 16:30:19;;;;;;;;;;;25.20;99.90;;;;;;2616998;54;20055;-73
2023/10/01 16:32:54;;;;;;;;;;;25.00;99.90;;;;;;2616380;54;20028;-73
2023/10/01 16:35:27;;;;;;;;;;;24.80;99.90;;;;;;2616641;31;20397;-72
2023/10/01 16:38:03;;;;;;;;;;;24.60;99.90;;;;;;2616508;54;20016;-72
2023/10/01 16:40:51;;;;;;;;;;;24.50;99.90;;;;;;2616077;47;20051;-73
2023/10/01 16:43:32;;;;;;;;;;;24.30;99.90;;;;;;2617427;54;19939;-73
2023/10/01 16:46:13;;;;;;;;;;;24.10;99.90;;;;;;2617027;47;19939;-74
2023/10/01 16:49:03;;;;;;;;;;;24.00;99.90;;;;;;2620084;39;20361;-73
2023/10/01 16:51:38;;;;;;;;;;;23.80;99.90;;;;;;2618281;47;19947;-74
2023/10/01 16:54:16;;;;;;;;;;;23.60;99.90;;;;;;2616877;46;20068;-72
2023/10/01 16:56:49;;;;;;;;;;;23.50;99.90;;;;;;2616528;54;20438;-74
2023/10/01 16:59:24;;;;;;;;;;;23.30;99.90;;;;;;2616400;47;19947;-73
2023/10/01 17:01:57;;;;;;;;;;;23.20;99.90;;;;;;2617470;54;19950;-73
2023/10/01 17:04:34;;;;;;;;;;;23.00;99.90;;;;;;2616163;54;19992;-74
2023/10/01 17:07:14;;;;;;;;;;;22.90;99.90;;;;;;2616834;46;19939;-74
2023/10/01 17:09:50;;;;;;;;;;;22.80;99.90;;;;;;2616343;54;19947;-73
2023/10/01 17:12:23;;;;;;;;;;;22.60;99.90;;;;;;2616793;47;20033;-72
2023/10/01 17:14:53;;;;;;;;;;;22.50;99.90;;;;;;2617324;47;20038;-73
2023/10/01 17:17:27;;;;;;;;;;;22.40;99.90;;;;;;2616892;54;19970;-72
2023/10/01 17:20:03;;;;;;;;;;;22.70;99.90;;;;;;2616291;54;19968;-72
2023/10/01 17:22:45;;;;;;;;;;;22.20;99.90;;;;;;2616780;54;19977;-72
2023/10/01 17:25:16;;;;;;;;;;;22.10;99.90;;;;;;2617180;54;19946;-72
2023/10/01 17:27:46;;;;;;;;;;;22.00;99.90;;;;;;2616024;47;19947;-73
2023/10/01 17:30:19;;;;;;;;;;;21.90;99.90;;;;;;2617797;54;20005;-72
2023/10/01 17:33:00;;;;;;;;;;;21.80;99.90;;;;;;2618167;47;19947;-73
2023/10/01 17:35:34;;;;;;;;;;;21.70;99.90;;;;;;2617241;47;20457;-74
2023/10/01 17:38:09;;;;;;;;;;;21.60;99.90;;;;;;2617215;48;19945;-73
2023/10/01 17:40:48;;;;;;;;;;;21.40;99.90;;;;;;2616988;47;20796;-72
2023/10/01 17:43:27;;;;;;;;;;;21.30;99.90;;;;;;2616741;47;19946;-72
2023/10/01 17:46:02;;;;;;;;;;;21.20;99.90;;;;;;2617099;54;19946;-73
2023/10/01 17:48:35;;;;;;;;;;;21.10;99.90;;;;;;2616747;47;20440;-72
2023/10/01 17:51:08;;;;;;;;;;;21.00;99.90;;;;;;2615096;47;19943;-71
2023/10/01 17:53:39;;;;;;;;;;;21.00;99.90;;;;;;2615628;54;19946;-72
2023/10/01 17:59:11;;;;;;;;;;;20.70;99.90;;;;;;2624710;47;19942;-73
2023/10/01 18:05:32;;;;;;;;;;;20.50;99.90;;;;;;2620245;46;19957;-72
2023/10/01 18:08:18;;;;;;;;;;;20.40;99.90;;;;;;2620853;46;19964;-71
2023/10/01 18:10:48;;;;;;;;;;;20.30;99.90;;;;;;2620576;54;19938;-70
2023/10/01 18:13:22;;;;;;;;;;;20.30;99.90;;;;;;2619353;47;19954;-72
2023/10/01 18:15:54;;;;;;;;;;;20.20;99.90;;;;;;2616587;54;19946;-73
2023/10/01 18:18:26;;;;;;;;;;;20.10;99.90;;;;;;2615557;47;19954;-72
2023/10/01 18:20:58;;;;;;;;;;;20.00;99.90;;;;;;2615613;54;19946;-72
2023/10/01 18:23:30;;;;;;;;;;;20.00;99.90;;;;;;2614471;54;19958;-71
2023/10/01 18:26:02;;;;;;;;;;;19.90;99.90;;;;;;2614774;54;19989;-72
2023/10/01 18:28:33;;;;;;;;;;;19.80;99.90;;;;;;2614709;46;19954;-74
2023/10/01 18:31:13;;;;;;;;;;;19.70;99.90;;;;;;2614404;39;20330;-73
2023/10/01 18:33:53;;;;;;;;;;;19.60;99.90;;;;;;2617802;47;20019;-74
2023/10/01 18:37:08;;;;;;;;;;;19.60;99.90;;;;;;2619099;47;19950;-73
2023/10/01 18:40:00;;;;;;;;;;;19.30;99.90;;;;;;2619618;46;19983;-72
2023/10/01 18:42:38;;;;;;;;;;;19.30;99.90;;;;;;2618785;54;20018;-74
2023/10/01 18:45:22;;;;;;;;;;;19.30;99.90;;;;;;2616853;46;19977;-72
2023/10/01 18:47:51;;;;;;;;;;;19.20;99.90;;;;;;2616376;47;19950;-72
2023/10/01 18:50:21;;;;;;;;;;;19.20;99.90;;;;;;2616365;54;19950;-73
2023/10/01 18:52:51;;;;;;;;;;;19.10;99.90;;;;;;2616191;48;19954;-72
2023/10/01 18:55:24;;;;;;;;;;;19.10;99.90;;;;;;2617711;54;19954;-73
2023/10/01 18:57:54;;;;;;;;;;;19.00;99.90;;;;;;2616968;47;19950;-72
2023/10/01 19:00:29;;;;;;;;;;;19.00;99.90;;;;;;2617822;47;19946;-71
2023/10/01 19:03:01;;;;;;;;;;;19.00;99.90;;;;;;2618664;54;19953;-72
2023/10/01 19:05:31;;;;;;;;;;;18.90;99.90;;;;;;2617037;39;20637;-71
2023/10/01 19:08:06;;;;;;;;;;;18.90;99.90;;;;;;2617704;54;20692;-73
2023/10/01 19:10:39;;;;;;;;;;;18.90;99.90;;;;;;2620760;47;19946;-72
2023/10/01 19:13:09;;;;;;;;;;;18.80;99.90;;;;;;2617192;47;19939;-72
2023/10/01 19:15:38;;;;;;;;;;;18.80;99.90;;;;;;2619096;54;19939;-73
2023/10/01 19:18:10;;;;;;;;;;;18.70;99.90;;;;;;2620201;47;19998;-73
2023/10/01 19:20:44;;;;;;;;;;;18.70;99.90;;;;;;2617359;54;19966;-71
2023/10/01 19:23:14;;;;;;;;;;;18.60;99.90;;;;;;2617167;47;20038;-72
2023/10/01 19:25:47;;;;;;;;;;;18.60;99.90;;;;;;2616434;54;19947;-72
2023/10/01 19:28:17;;;;;;;;;;;18.50;99.90;;;;;;2616475;50;19953;-70
2023/10/01 19:30:50;;;;;;;;;;;18.60;99.90;;;;;;2616323;54;19959;-73
2023/10/01 19:33:20;;;;;;;;;;;18.50;99.90;;;;;;2617133;54;19938;-71
2023/10/01 19:35:51;;;;;;;;;;;18.50;99.90;;;;;;2616677;54;19946;-71
2023/10/01 19:38:22;;;;;;;;;;;18.40;99.90;;;;;;2615887;54;20045;-72
2023/10/01 19:40:55;;;;;;;;;;;18.40;99.90;;;;;;2615369;39;20396;-71
2023/10/01 19:43:26;;;;;;;;;;;18.40;99.90;;;;;;2616210;54;19938;-72
2023/10/01 19:45:57;;;;;;;;;;;18.30;99.90;;;;;;2615564;54;19938;-71
2023/10/01 19:48:27;;;;;;;;;;;18.30;99.90;;;;;;2615878;47;20042;-71
2023/10/01 19:50:58;;;;;;;;;;;18.20;99.90;;;;;;2616755;47;19954;-72
2023/10/01 19:53:30;;;;;;;;;;;18.20;99.90;;;;;;2617308;47;19999;-73
2023/10/01 19:56:06;;;;;;;;;;;18.20;99.90;;;;;;2617982;47;20122;-72
2023/10/01 19:58:43;;;;;;;;;;;18.10;99.90;;;;;;2616158;54;19946;-70
2023/10/01 20:03:41;;;;;;;;;;;18.00;99.90;;;;;;2614021;39;20338;-70
2023/10/01 20:06:11;;;;;;;;;;;18.00;99.90;;;;;;2616448;54;19961;-71
2023/10/01 20:08:41;;;;;;;;;;;17.90;99.90;;;;;;2616479;47;19952;-71
2023/10/01 20:11:15;;;;;;;;;;;17.90;99.90;;;;;;2616408;54;20030;-71
2023/10/01 20:13:44;;;;;;;;;;;17.80;99.90;;;;;;2615527;47;19987;-71
2023/10/01 20:16:14;;;;;;;;;;;17.80;99.90;;;;;;2615186;54;19971;-64
2023/10/01 20:18:44;;;;;;;;;;;17.80;99.90;;;;;;2622682;47;19981;-65
2023/10/01 20:21:22;;;;;;;;;;;17.80;99.90;;;;;;2626188;54;19946;-66
2023/10/01 20:23:53;;;;;;;;;;;17.70;99.90;;;;;;2625860;54;19981;-66
2023/10/01 20:26:25;;;;;;;;;;;17.70;99.90;;;;;;2623264;54;19969;-67
2023/10/01 20:28:55;;;;;;;;;;;17.70;99.90;;;;;;2619746;54;19947;-67
2023/10/01 20:31:27;;;;;;;;;;;17.70;99.90;;;;;;2618812;54;19946;-65
2023/10/01 20:33:57;;;;;;;;;;;17.70;99.90;;;;;;2617866;54;20511;-66
2023/10/01 20:36:28;;;;;;;;;;;17.60;99.90;;;;;;2619454;39;20414;-66
2023/10/01 20:39:03;;;;;;;;;;;17.60;99.90;;;;;;2618526;48;20042;-67
2023/10/01 20:41:35;;;;;;;;;;;17.50;99.90;;;;;;2618339;54;19983;-66
2023/10/01 20:44:06;;;;;;;;;;;17.50;99.90;;;;;;2618529;54;20026;-66
2023/10/01 20:46:37;;;;;;;;;;;17.50;99.90;;;;;;2619028;54;19946;-66
2023/10/01 20:49:08;;;;;;;;;;;17.50;99.90;;;;;;2618622;46;19962;-66
2023/10/01 20:51:41;;;;;;;;;;;17.40;99.90;;;;;;2617502;54;19946;-65
2023/10/01 20:54:14;;;;;;;;;;;17.40;99.90;;;;;;2621789;54;19947;-67
2023/10/01 20:56:52;;;;;;;;;;;17.40;99.90;;;;;;2621852;54;19947;-66
2023/10/01 20:59:22;;;;;;;;;;;17.30;99.90;;;;;;2620378;54;19946;-66
2023/10/01 21:01:53;;;;;;;;;;;17.30;99.90;;;;;;2620167;54;19953;-64